To NAV CANADA Home Page Login to a new session Search on AWWS site Disclaimer Vers la page française équivalente Tips FAQ What's new on the site To the Forecasts and Observations / NOTAM section To "File a Flight Plan" website Publications and other links Update of the User's profile FIC Telephone Numbers My Weather Data Folder Route Weather Data Regional Weather Data Local Weather Data To the Forecasts and Observations / NOTAM section
Request Generated 07/18/2019 at 15:11:13 UTC . Weather information available at that time is displayed.


Go to a specific product

Save this request - Inactive

METAR/TAF

OTTAWA/MACDONALD-CARTIER INTL/ON    

METAR CYOW 181500Z 08013G18KT 15SM FEW180 FEW240 23/12 A3000 RMK AC1CI1 AC TR SLP158 DENSITY ALT 1400FT=
METAR CYOW 181400Z 09013G20KT 15SM FEW180 FEW240 22/11 A3002 RMK AC1CI1 AC TR CI TR SLP166 DENSITY ALT 1200FT=
METAR CYOW 181300Z 07011KT 15SM FEW180 FEW220 20/11 A3002 RMK AC1CI1 AC TR SLP166 DENSITY ALT 1000FT=

TAF CYOW 181438Z 1815/1912 09010G20KT P6SM FEW180
BECMG 1815/1817 09012KT
FM190000 12006KT P6SM BKN280
FM190700 21006KT P6SM BKN120 OVC200
FM190900 22010KT P6SM -SHRA BKN020 OVC070
RMK NXT FCST BY 181800Z=

OTTAWA/GATINEAU/QC    

METAR CYND 181500Z 08009G16KT 15SM FEW140 SCT240 23/13 A3000 RMK AC1CI4 AC TR SLP160 DENSITY ALT 1200FT=
METAR CYND 181400Z 07012KT 15SM FEW140 SCT240 21/11 A3002 RMK AC1CI3 AC TR SLP168 DENSITY ALT 900FT=
METAR CYND 181300Z 08010KT 15SM SCT260 20/11 A3002 RMK CI4 CONTRAILS SLP168 DENSITY ALT 800FT=

TAF CYND 181239Z 1813/1901 08010KT P6SM BKN260
FM190000 09005KT P6SM FEW060 SCT280
RMK NXT FCST BY 181800Z=


GRAPHICAL FA CLOUDS & WEATHER FORECASTS
To the Product Selector
Graphical FA gfacn33      

GRAPHICAL FA ICING, TURBULENCE & FREEZING LEVEL FORECASTS
To the Product Selector
Graphical FA gfacn33      

Your time UTC time
Weather data provided by Environment Canada and NAV CANADA